createdAt,value
2023-01-30T00:00:50.406Z,-3.81
2023-01-30T00:02:22.357Z,-3.82
2023-01-30T00:03:54.410Z,-3.80
2023-01-30T00:05:26.351Z,-3.80
2023-01-30T00:06:58.322Z,-3.80
2023-01-30T00:08:30.297Z,-3.81
2023-01-30T00:10:02.436Z,-3.83
2023-01-30T00:11:35.273Z,-3.84
2023-01-30T00:13:07.287Z,-3.84
2023-01-30T00:14:39.224Z,-3.84
2023-01-30T00:16:12.114Z,-3.86
2023-01-30T00:17:44.113Z,-3.88
2023-01-30T00:19:16.075Z,-3.86
2023-01-30T00:20:48.018Z,-3.85
2023-01-30T00:22:20.039Z,-3.83
2023-01-30T00:23:52.003Z,-3.84
2023-01-30T00:25:24.131Z,-3.85
2023-01-30T00:26:56.126Z,-3.86
2023-01-30T00:28:28.142Z,-3.87
2023-01-30T00:30:03.514Z,-3.85
2023-01-30T00:31:36.245Z,-3.87
2023-01-30T00:33:09.422Z,-3.85
2023-01-30T00:34:41.456Z,-3.85
2023-01-30T00:36:13.451Z,-3.85
2023-01-30T00:37:45.564Z,-3.86
2023-01-30T00:39:17.573Z,-3.86
2023-01-30T00:40:50.009Z,-3.83
2023-01-30T00:42:40.827Z,-3.81
2023-01-30T00:44:31.648Z,-3.85
2023-01-30T00:46:23.211Z,-3.87
2023-01-30T00:47:55.273Z,-3.87
2023-01-30T00:49:27.206Z,-3.87
2023-01-30T00:50:59.195Z,-3.90
2023-01-30T00:52:32.227Z,-3.90
2023-01-30T00:54:04.385Z,-3.92
2023-01-30T00:55:36.752Z,-3.94
2023-01-30T00:57:08.730Z,-3.94
2023-01-30T00:58:40.748Z,-3.93
2023-01-30T01:00:13.037Z,-3.93
2023-01-30T01:01:45.851Z,-3.95
2023-01-30T01:03:19.069Z,-3.96
2023-01-30T01:04:51.139Z,-3.99
2023-01-30T01:06:23.237Z,-4.02
2023-01-30T01:07:55.451Z,-4.05
2023-01-30T01:09:28.760Z,-4.05
2023-01-30T01:11:00.740Z,-4.06
2023-01-30T01:12:32.757Z,-4.07
2023-01-30T01:14:06.053Z,-4.07
2023-01-30T01:15:38.259Z,-4.09
2023-01-30T01:17:10.653Z,-4.11
2023-01-30T01:18:43.473Z,-4.13
2023-01-30T01:20:15.972Z,-4.12
2023-01-30T01:21:48.038Z,-4.11
2023-01-30T01:23:19.999Z,-4.12
2023-01-30T01:24:55.066Z,-4.13
2023-01-30T01:26:27.104Z,-4.15
2023-01-30T01:27:59.143Z,-4.16
2023-01-30T01:29:31.072Z,-4.15
2023-01-30T01:31:09.853Z,-4.16
2023-01-30T01:32:41.925Z,-4.20
2023-01-30T01:34:14.712Z,-4.20
2023-01-30T01:35:49.316Z,-4.21
2023-01-30T01:37:21.433Z,-4.24
2023-01-30T01:38:53.392Z,-4.29
2023-01-30T01:40:44.428Z,-4.32
2023-01-30T01:42:16.752Z,-4.37
2023-01-30T01:44:04.715Z,-4.41
2023-01-30T01:45:36.735Z,-4.46
2023-01-30T01:47:09.387Z,-4.47
2023-01-30T01:48:44.107Z,-4.49
2023-01-30T01:50:24.342Z,-4.52
2023-01-30T01:51:59.121Z,-4.53
2023-01-30T01:53:33.907Z,-4.57
2023-01-30T01:55:07.469Z,-4.60
2023-01-30T01:56:41.553Z,-4.61
2023-01-30T01:58:18.789Z,-4.59
2023-01-30T01:59:55.255Z,-4.58
2023-01-30T02:01:28.126Z,-4.60
2023-01-30T02:03:01.850Z,-4.61
2023-01-30T02:04:52.704Z,-4.63
2023-01-30T02:06:25.125Z,-4.69
2023-01-30T02:08:00.743Z,-4.72
2023-01-30T02:09:33.693Z,-4.74
2023-01-30T02:11:09.669Z,-4.75
2023-01-30T02:12:42.501Z,-4.76
2023-01-30T02:14:15.029Z,-4.78
2023-01-30T02:15:47.009Z,-4.79
2023-01-30T02:17:19.381Z,-4.81
2023-01-30T02:18:52.100Z,-4.82
2023-01-30T02:20:36.091Z,-4.84
2023-01-30T02:22:11.111Z,-4.86
2023-01-30T02:23:48.622Z,-4.89
2023-01-30T02:25:21.056Z,-4.94
2023-01-30T02:26:53.111Z,-4.94
2023-01-30T02:28:40.498Z,-4.95
2023-01-30T02:30:26.299Z,-4.97
2023-01-30T02:32:08.664Z,-4.97
2023-01-30T02:33:59.205Z,-4.98
2023-01-30T02:35:36.331Z,-4.98
2023-01-30T02:37:11.407Z,-4.99
2023-01-30T02:39:03.665Z,-5.01
2023-01-30T02:40:54.293Z,-5.03
2023-01-30T02:42:32.359Z,-5.04
2023-01-30T02:44:05.073Z,-5.03
2023-01-30T02:45:52.359Z,-5.04
2023-01-30T02:47:38.774Z,-5.05
2023-01-30T02:49:16.157Z,-5.01
2023-01-30T02:50:51.108Z,-5.01
2023-01-30T02:52:23.324Z,-5.00
2023-01-30T02:53:55.830Z,-4.99
2023-01-30T02:55:28.845Z,-5.00
2023-01-30T02:57:01.821Z,-4.98
2023-01-30T02:58:37.440Z,-4.99
2023-01-30T03:00:10.000Z,-5.00
2023-01-30T03:01:52.264Z,-4.99
2023-01-30T03:03:47.548Z,-4.99
2023-01-30T03:05:37.952Z,-4.97
2023-01-30T03:07:21.769Z,-4.96
2023-01-30T03:09:26.414Z,-4.96
2023-01-30T03:11:03.244Z,-4.94
2023-01-30T03:12:41.771Z,-4.94
2023-01-30T03:14:21.591Z,-4.93
2023-01-30T03:16:16.713Z,-4.88
2023-01-30T03:17:49.477Z,-4.85
2023-01-30T03:19:23.042Z,-4.82
2023-01-30T03:20:55.116Z,-4.77
2023-01-30T03:22:27.061Z,-4.75
2023-01-30T03:24:01.290Z,-4.72
2023-01-30T03:25:33.816Z,-4.67
2023-01-30T03:27:08.174Z,-4.64
2023-01-30T03:28:41.125Z,-4.64
2023-01-30T03:30:13.508Z,-4.66
2023-01-30T03:31:46.192Z,-4.68
2023-01-30T03:33:18.378Z,-4.69
2023-01-30T03:34:53.334Z,-4.69
2023-01-30T03:36:25.424Z,-4.70
2023-01-30T03:37:58.753Z,-4.72
2023-01-30T03:39:31.038Z,-4.74
2023-01-30T03:41:03.439Z,-4.75
2023-01-30T03:42:35.537Z,-4.78
2023-01-30T03:44:07.447Z,-4.81
2023-01-30T03:45:39.649Z,-4.83
2023-01-30T03:47:12.287Z,-4.85
2023-01-30T03:48:44.441Z,-4.88
2023-01-30T03:50:17.897Z,-4.90
2023-01-30T03:51:51.045Z,-4.94
2023-01-30T03:53:23.005Z,-4.95
2023-01-30T03:54:55.262Z,-4.97
2023-01-30T03:56:27.351Z,-4.98
2023-01-30T03:57:59.581Z,-4.98
2023-01-30T03:59:34.810Z,-4.99
2023-01-30T04:01:11.704Z,-5.02
2023-01-30T04:02:44.058Z,-5.05
2023-01-30T04:04:19.646Z,-5.07
2023-01-30T04:05:51.631Z,-5.09
2023-01-30T04:07:23.907Z,-5.11
2023-01-30T04:08:56.962Z,-5.12
2023-01-30T04:10:45.943Z,-5.13
2023-01-30T04:12:18.710Z,-5.14
2023-01-30T04:13:58.066Z,-5.14
2023-01-30T04:15:30.075Z,-5.16
2023-01-30T04:17:04.885Z,-5.17
2023-01-30T04:19:06.171Z,-5.18
2023-01-30T04:20:38.908Z,-5.18
2023-01-30T04:22:11.247Z,-5.19
2023-01-30T04:23:43.582Z,-5.21
2023-01-30T04:25:17.088Z,-5.22
2023-01-30T04:26:49.630Z,-5.22
2023-01-30T04:28:21.705Z,-5.24
2023-01-30T04:29:53.885Z,-5.25
2023-01-30T04:31:26.382Z,-5.23
2023-01-30T04:33:06.295Z,-5.26
2023-01-30T04:34:38.403Z,-5.27
2023-01-30T04:36:11.332Z,-5.28
2023-01-30T04:37:44.665Z,-5.29
2023-01-30T04:39:22.092Z,-5.28
2023-01-30T04:40:54.967Z,-5.26
2023-01-30T04:42:26.948Z,-5.26
2023-01-30T04:44:18.893Z,-5.25
2023-01-30T04:45:55.179Z,-5.24
2023-01-30T04:47:27.192Z,-5.23
2023-01-30T04:48:59.600Z,-5.22
2023-01-30T04:50:32.813Z,-5.20
2023-01-30T04:52:05.102Z,-5.18
2023-01-30T04:53:37.087Z,-5.16
2023-01-30T04:55:09.191Z,-5.12
2023-01-30T04:56:41.711Z,-5.08
2023-01-30T04:58:13.931Z,-5.04
2023-01-30T04:59:46.906Z,-4.99
2023-01-30T05:01:22.767Z,-4.94
2023-01-30T05:02:56.020Z,-4.86
2023-01-30T05:04:28.054Z,-4.80
2023-01-30T05:06:00.093Z,-4.73
2023-01-30T05:07:31.993Z,-4.64
2023-01-30T05:09:04.068Z,-4.56
2023-01-30T05:10:36.134Z,-4.49
2023-01-30T05:12:08.092Z,-4.42
2023-01-30T05:13:40.106Z,-4.37
2023-01-30T05:15:12.765Z,-4.30
2023-01-30T05:16:44.731Z,-4.23
2023-01-30T05:18:16.672Z,-4.18
2023-01-30T05:19:48.693Z,-4.13
2023-01-30T05:21:26.100Z,-4.10
2023-01-30T05:22:58.122Z,-4.05
2023-01-30T05:24:30.079Z,-4.02
2023-01-30T05:26:02.375Z,-4.01
2023-01-30T05:27:34.418Z,-3.99
2023-01-30T05:29:06.613Z,-3.97
2023-01-30T05:30:38.692Z,-3.95
2023-01-30T05:32:13.629Z,-3.93
2023-01-30T05:33:46.572Z,-3.88
2023-01-30T05:35:18.994Z,-3.87
2023-01-30T05:36:51.110Z,-3.83
2023-01-30T05:38:23.748Z,-3.79
2023-01-30T05:39:55.879Z,-3.73
2023-01-30T05:41:27.859Z,-3.68
2023-01-30T05:42:59.775Z,-3.59
2023-01-30T05:44:31.792Z,-3.52
2023-01-30T05:46:04.684Z,-3.46
2023-01-30T05:47:36.654Z,-3.38
2023-01-30T05:49:08.679Z,-3.30
2023-01-30T05:50:40.720Z,-3.22
2023-01-30T05:52:12.689Z,-3.15
2023-01-30T05:53:44.660Z,-3.09
2023-01-30T05:55:17.096Z,-3.05
2023-01-30T05:56:50.376Z,-3.01
2023-01-30T05:58:22.328Z,-2.98
2023-01-30T05:59:54.310Z,-2.95
2023-01-30T06:01:26.922Z,-2.91
2023-01-30T06:02:58.904Z,-2.88
2023-01-30T06:04:30.909Z,-2.85
2023-01-30T06:06:03.638Z,-2.81
2023-01-30T06:07:36.288Z,-2.78
2023-01-30T06:09:10.535Z,-2.73
2023-01-30T06:10:42.476Z,-2.70
2023-01-30T06:12:14.557Z,-2.66
2023-01-30T06:13:46.576Z,-2.62
2023-01-30T06:15:18.937Z,-2.59
2023-01-30T06:16:51.149Z,-2.55
2023-01-30T06:18:23.256Z,-2.51
2023-01-30T06:19:55.286Z,-2.48
2023-01-30T06:21:27.401Z,-2.45
2023-01-30T06:22:59.346Z,-2.43
2023-01-30T06:24:31.408Z,-2.43
2023-01-30T06:26:05.417Z,-2.43
2023-01-30T06:27:39.318Z,-2.42
2023-01-30T06:29:11.270Z,-2.40
2023-01-30T06:30:43.743Z,-2.38
2023-01-30T06:32:15.864Z,-2.34
2023-01-30T06:33:49.482Z,-2.30
2023-01-30T06:35:21.531Z,-2.26
2023-01-30T06:36:53.522Z,-2.20
2023-01-30T06:38:26.230Z,-2.16
2023-01-30T06:39:58.235Z,-2.11
2023-01-30T06:41:30.128Z,-2.07
2023-01-30T06:43:02.102Z,-2.03
2023-01-30T06:44:34.009Z,-1.99
2023-01-30T06:46:06.130Z,-1.94
2023-01-30T06:47:44.862Z,-1.91
2023-01-30T06:49:17.153Z,-1.87
2023-01-30T06:50:49.123Z,-1.84
2023-01-30T06:52:21.051Z,-1.82
2023-01-30T06:53:53.469Z,-1.79
2023-01-30T06:55:26.522Z,-1.77
2023-01-30T06:56:58.485Z,-1.75
2023-01-30T06:58:30.520Z,-1.72
2023-01-30T07:00:04.129Z,-1.67
2023-01-30T07:01:36.172Z,-1.63
2023-01-30T07:03:12.168Z,-1.59
2023-01-30T07:04:44.191Z,-1.55
2023-01-30T07:06:16.195Z,-1.52
2023-01-30T07:07:48.201Z,-1.45
2023-01-30T07:09:20.319Z,-1.41
2023-01-30T07:10:52.392Z,-1.36
2023-01-30T07:12:25.001Z,-1.31
2023-01-30T07:13:57.900Z,-1.28
2023-01-30T07:15:30.251Z,-1.23
2023-01-30T07:17:02.355Z,-1.18
2023-01-30T07:18:34.371Z,-1.14
2023-01-30T07:20:06.761Z,-1.10
2023-01-30T07:21:38.727Z,-1.08
2023-01-30T07:23:10.803Z,-1.03
2023-01-30T07:24:45.501Z,-0.97
2023-01-30T07:26:17.532Z,-0.93
2023-01-30T07:27:52.397Z,-0.89
2023-01-30T07:29:24.466Z,-0.85
2023-01-30T07:30:59.551Z,-0.82
2023-01-30T07:32:31.553Z,-0.79
2023-01-30T07:34:03.507Z,-0.75
2023-01-30T07:35:36.816Z,-0.71
2023-01-30T07:37:08.809Z,-0.67
2023-01-30T07:38:40.743Z,-0.63
2023-01-30T07:40:13.018Z,-0.61
2023-01-30T07:41:45.036Z,-0.60
2023-01-30T07:43:16.996Z,-0.58
2023-01-30T07:44:50.036Z,-0.56
2023-01-30T07:46:22.051Z,-0.53
2023-01-30T07:47:54.047Z,-0.49
2023-01-30T07:49:26.173Z,-0.46
2023-01-30T07:50:58.129Z,-0.42
2023-01-30T07:52:30.104Z,-0.41
2023-01-30T07:54:03.988Z,-0.38
2023-01-30T07:55:36.091Z,-0.36
2023-01-30T07:57:08.126Z,-0.34
2023-01-30T07:58:40.206Z,-0.31
2023-01-30T08:00:12.533Z,-0.28
2023-01-30T08:01:44.470Z,-0.26
2023-01-30T08:03:17.178Z,-0.21
2023-01-30T08:04:49.146Z,-0.17
2023-01-30T08:06:21.236Z,-0.11
2023-01-30T08:07:55.422Z,-0.06
2023-01-30T08:09:27.438Z,-0.03
2023-01-30T08:10:59.363Z,0.04
2023-01-30T08:12:31.475Z,0.09
2023-01-30T08:14:03.400Z,0.15
2023-01-30T08:15:35.425Z,0.22
2023-01-30T08:17:07.408Z,0.29
2023-01-30T08:18:40.258Z,0.32
2023-01-30T08:20:16.916Z,0.38
2023-01-30T08:21:49.409Z,0.45
2023-01-30T08:23:21.486Z,0.53
2023-01-30T08:24:53.470Z,0.61
2023-01-30T08:26:25.567Z,0.70
2023-01-30T08:27:58.869Z,0.75
2023-01-30T08:29:30.841Z,0.81
2023-01-30T08:31:02.953Z,0.87
2023-01-30T08:32:34.937Z,0.94
2023-01-30T08:34:06.944Z,1.01
2023-01-30T08:35:40.049Z,1.10
2023-01-30T08:37:12.011Z,1.20
2023-01-30T08:38:43.955Z,1.32
2023-01-30T08:40:16.559Z,1.45
2023-01-30T08:41:48.858Z,1.56
2023-01-30T08:43:20.986Z,1.67
2023-01-30T08:44:52.957Z,1.76
2023-01-30T08:46:24.995Z,1.82
2023-01-30T08:48:00.863Z,1.88
2023-01-30T08:49:32.822Z,1.97
2023-01-30T08:51:04.895Z,2.04
2023-01-30T08:52:36.934Z,2.10
2023-01-30T08:54:09.002Z,2.22
2023-01-30T08:55:41.088Z,2.38
2023-01-30T08:57:13.941Z,2.52
2023-01-30T08:58:46.691Z,2.72
2023-01-30T09:00:19.073Z,2.94
2023-01-30T09:01:51.324Z,3.15
2023-01-30T09:03:23.295Z,3.37
2023-01-30T09:04:55.271Z,3.62
2023-01-30T09:06:27.408Z,3.81
2023-01-30T09:07:59.447Z,4.03
2023-01-30T09:09:31.458Z,4.25
2023-01-30T09:11:04.579Z,4.54
2023-01-30T09:12:36.518Z,4.88
2023-01-30T09:14:09.540Z,5.21
2023-01-30T09:15:44.320Z,5.50
2023-01-30T09:17:16.412Z,5.72
2023-01-30T09:18:48.352Z,5.84
2023-01-30T09:20:20.903Z,5.95
2023-01-30T09:21:53.459Z,6.06
2023-01-30T09:23:25.538Z,6.08
2023-01-30T09:24:59.086Z,6.06
2023-01-30T09:26:31.161Z,5.98
2023-01-30T09:28:03.307Z,5.96
2023-01-30T09:29:35.349Z,5.91
2023-01-30T09:31:07.339Z,5.84
2023-01-30T09:32:39.388Z,5.80
2023-01-30T09:34:11.471Z,5.72
2023-01-30T09:35:46.826Z,5.60
2023-01-30T09:37:18.800Z,5.53
2023-01-30T09:38:50.751Z,5.49
2023-01-30T09:40:25.054Z,5.44
2023-01-30T09:41:58.841Z,5.42
2023-01-30T09:43:40.390Z,5.43
2023-01-30T09:45:31.478Z,5.46
2023-01-30T09:47:06.383Z,5.60
2023-01-30T09:48:54.171Z,5.74
2023-01-30T09:50:32.349Z,5.88
2023-01-30T09:52:11.534Z,5.97
2023-01-30T09:53:56.582Z,6.03
2023-01-30T09:55:29.810Z,6.05
2023-01-30T09:57:21.764Z,6.06
2023-01-30T09:59:04.783Z,6.04
2023-01-30T10:00:38.482Z,6.01
2023-01-30T10:02:16.443Z,5.89
2023-01-30T10:03:54.539Z,5.75
2023-01-30T10:05:33.836Z,5.67
2023-01-30T10:07:09.021Z,5.54
2023-01-30T10:08:50.167Z,5.51
2023-01-30T10:10:31.353Z,5.47
2023-01-30T10:12:14.005Z,5.36
2023-01-30T10:13:55.234Z,5.29
2023-01-30T10:15:27.213Z,5.26
2023-01-30T10:17:01.330Z,5.21
2023-01-30T10:18:34.395Z,5.17
2023-01-30T10:20:12.426Z,5.11
2023-01-30T10:21:52.410Z,5.09
2023-01-30T10:23:33.416Z,5.01
2023-01-30T10:25:14.721Z,4.99
2023-01-30T10:26:47.081Z,4.96
2023-01-30T10:28:21.044Z,4.94
2023-01-30T10:29:57.246Z,4.91
2023-01-30T10:31:32.596Z,4.92
2023-01-30T10:33:07.252Z,4.97
2023-01-30T10:34:40.678Z,5.05
2023-01-30T10:36:16.115Z,5.14
2023-01-30T10:38:14.654Z,5.23
2023-01-30T10:40:04.954Z,5.24
2023-01-30T10:41:38.909Z,5.22
2023-01-30T10:43:27.846Z,5.20
2023-01-30T10:45:02.560Z,5.18
2023-01-30T10:46:46.925Z,5.16
2023-01-30T10:48:45.846Z,5.13
2023-01-30T10:50:21.624Z,5.06
2023-01-30T10:52:04.519Z,5.01
2023-01-30T10:53:47.746Z,4.95
2023-01-30T10:55:39.935Z,4.81
2023-01-30T10:57:15.084Z,4.71
2023-01-30T10:59:05.743Z,4.68
2023-01-30T11:00:43.678Z,4.58
2023-01-30T11:02:34.528Z,4.49
2023-01-30T11:04:22.284Z,4.43
2023-01-30T11:06:06.149Z,4.39
2023-01-30T11:07:38.365Z,4.42
2023-01-30T11:09:10.399Z,4.45
2023-01-30T11:10:42.437Z,4.44
2023-01-30T11:12:15.164Z,4.42
2023-01-30T11:13:47.175Z,4.44
2023-01-30T11:15:19.375Z,4.45
2023-01-30T11:16:53.578Z,4.45
2023-01-30T11:19:18.242Z,4.44
2023-01-30T11:20:19.951Z,4.45
2023-01-30T11:21:56.422Z,4.46
2023-01-30T11:23:35.636Z,4.47
2023-01-30T11:25:14.271Z,4.46
2023-01-30T11:26:48.361Z,4.47
2023-01-30T11:28:20.727Z,4.53
2023-01-30T11:30:02.675Z,4.59
2023-01-30T11:31:41.749Z,4.67
2023-01-30T11:33:15.466Z,4.76
2023-01-30T11:35:01.374Z,4.87
2023-01-30T11:36:35.865Z,5.01
2023-01-30T11:38:12.312Z,5.10
2023-01-30T11:39:49.002Z,5.21
2023-01-30T11:41:22.020Z,5.33
2023-01-30T11:43:05.047Z,5.40
2023-01-30T11:44:37.939Z,5.45
2023-01-30T11:46:12.074Z,5.52
2023-01-30T11:48:05.366Z,5.60
2023-01-30T11:49:56.944Z,5.65
2023-01-30T11:51:36.599Z,5.59
2023-01-30T11:53:17.819Z,5.50
2023-01-30T11:54:50.389Z,5.42
2023-01-30T11:56:25.543Z,5.30
2023-01-30T11:58:01.699Z,5.19
2023-01-30T11:59:38.476Z,5.12
2023-01-30T12:01:11.242Z,5.09
2023-01-30T12:02:43.886Z,5.02
2023-01-30T12:04:16.036Z,4.95
2023-01-30T12:05:48.199Z,4.91
2023-01-30T12:07:27.046Z,4.89
2023-01-30T12:08:59.473Z,4.86
2023-01-30T12:10:31.842Z,4.84
2023-01-30T12:12:23.830Z,4.80
2023-01-30T12:14:01.148Z,4.80
2023-01-30T12:15:33.918Z,4.79
2023-01-30T12:17:05.909Z,4.75
2023-01-30T12:18:41.237Z,4.69
2023-01-30T12:20:17.930Z,4.65
2023-01-30T12:21:59.344Z,4.65
2023-01-30T12:23:34.438Z,4.63
2023-01-30T12:25:20.379Z,4.61
2023-01-30T12:27:01.063Z,4.61
2023-01-30T12:28:37.754Z,4.56
2023-01-30T12:30:29.728Z,4.51
2023-01-30T12:32:16.033Z,4.43
2023-01-30T12:33:48.599Z,4.41
2023-01-30T12:35:23.453Z,4.35
2023-01-30T12:36:55.463Z,4.33
2023-01-30T12:38:34.331Z,4.29
2023-01-30T12:40:16.805Z,4.21
2023-01-30T12:41:56.700Z,4.14
2023-01-30T12:43:35.266Z,4.09
2023-01-30T12:45:13.086Z,4.09
2023-01-30T12:47:05.229Z,4.14
2023-01-30T12:48:57.169Z,4.21
2023-01-30T12:50:34.487Z,4.41
2023-01-30T12:52:22.709Z,4.51
2023-01-30T12:54:13.496Z,4.67
2023-01-30T12:55:59.542Z,4.81
2023-01-30T12:57:31.540Z,4.93
2023-01-30T12:59:09.295Z,5.02
2023-01-30T13:00:41.194Z,5.09
2023-01-30T13:02:26.461Z,5.13
2023-01-30T13:04:17.408Z,5.20
2023-01-30T13:05:49.344Z,5.26
2023-01-30T13:07:26.208Z,5.32
2023-01-30T13:08:58.229Z,5.35
2023-01-30T13:10:32.900Z,5.39
2023-01-30T13:12:18.332Z,5.40
2023-01-30T13:13:53.363Z,5.44
2023-01-30T13:15:30.363Z,5.48
2023-01-30T13:17:10.603Z,5.54
2023-01-30T13:18:56.995Z,5.60
2023-01-30T13:20:43.621Z,5.59
2023-01-30T13:22:26.756Z,5.56
2023-01-30T13:24:01.911Z,5.55
2023-01-30T13:25:40.435Z,5.52
2023-01-30T13:27:15.414Z,5.44
2023-01-30T13:28:52.647Z,5.43
2023-01-30T13:30:27.721Z,5.37
2023-01-30T13:32:02.616Z,5.34
2023-01-30T13:33:38.575Z,5.36
2023-01-30T13:35:21.175Z,5.33
2023-01-30T13:37:01.723Z,5.30
2023-01-30T13:38:34.980Z,5.30
2023-01-30T13:40:18.427Z,5.31
2023-01-30T13:41:53.155Z,5.32
2023-01-30T13:43:30.595Z,5.32
2023-01-30T13:45:05.401Z,5.31
2023-01-30T13:46:38.265Z,5.31
2023-01-30T13:48:13.419Z,5.27
2023-01-30T13:49:55.189Z,5.24
2023-01-30T13:51:30.263Z,5.19
2023-01-30T13:53:05.230Z,5.21
2023-01-30T13:54:42.749Z,5.18
2023-01-30T13:56:40.414Z,5.23
2023-01-30T13:58:32.194Z,5.28
2023-01-30T14:00:22.568Z,5.34
2023-01-30T14:02:03.985Z,5.37
2023-01-30T14:03:36.270Z,5.40
2023-01-30T14:05:09.628Z,5.35
2023-01-30T14:06:41.904Z,5.31
2023-01-30T14:08:18.559Z,5.28
2023-01-30T14:10:02.112Z,5.24
2023-01-30T14:11:41.095Z,5.22
2023-01-30T14:13:14.482Z,5.18
2023-01-30T14:15:01.694Z,5.08
2023-01-30T14:16:42.199Z,4.96
2023-01-30T14:18:22.583Z,4.84
2023-01-30T14:20:02.620Z,4.77
2023-01-30T14:21:35.278Z,4.73
2023-01-30T14:23:20.394Z,4.69
2023-01-30T14:25:11.355Z,4.54
2023-01-30T14:26:50.479Z,4.45
2023-01-30T14:28:23.030Z,4.38
2023-01-30T14:29:55.233Z,4.33
2023-01-30T14:31:45.872Z,4.31
2023-01-30T14:33:20.755Z,4.26
2023-01-30T14:35:01.848Z,4.24
2023-01-30T14:36:35.128Z,4.21
2023-01-30T14:38:12.010Z,4.22
2023-01-30T14:39:49.574Z,4.17
2023-01-30T14:41:26.682Z,4.09
2023-01-30T14:43:14.964Z,4.05
2023-01-30T14:44:55.622Z,4.05
2023-01-30T14:46:27.598Z,4.01
2023-01-30T14:48:18.309Z,3.98
2023-01-30T14:49:50.753Z,3.97
2023-01-30T14:51:23.246Z,3.95
2023-01-30T14:52:56.352Z,3.95
2023-01-30T14:54:41.134Z,3.95
2023-01-30T14:56:13.799Z,3.96
2023-01-30T14:58:04.096Z,3.97
2023-01-30T15:00:14.203Z,3.98
2023-01-30T15:01:54.107Z,4.00
2023-01-30T15:03:26.188Z,3.94
2023-01-30T15:05:01.471Z,3.93
2023-01-30T15:06:35.895Z,3.93
2023-01-30T15:08:10.486Z,3.88
2023-01-30T15:09:45.001Z,3.84
2023-01-30T15:11:21.202Z,3.82
2023-01-30T15:12:56.213Z,3.81
2023-01-30T15:14:29.986Z,3.79
2023-01-30T15:16:04.819Z,3.78
2023-01-30T15:18:07.012Z,3.76
2023-01-30T15:19:42.739Z,3.70
2023-01-30T15:21:14.844Z,3.67
2023-01-30T15:22:47.086Z,3.65
2023-01-30T15:24:37.743Z,3.65
2023-01-30T15:26:09.677Z,3.67
2023-01-30T15:27:56.851Z,3.69
2023-01-30T15:29:49.076Z,3.71
2023-01-30T15:31:22.695Z,3.75
2023-01-30T15:33:14.051Z,3.78
2023-01-30T15:34:50.557Z,3.79
2023-01-30T15:36:27.721Z,3.81
2023-01-30T15:37:59.777Z,3.82
2023-01-30T15:39:31.919Z,3.82
2023-01-30T15:41:07.139Z,3.83
2023-01-30T15:42:39.119Z,3.83
2023-01-30T15:44:14.144Z,3.85
2023-01-30T15:46:02.079Z,3.85
2023-01-30T15:47:47.385Z,3.84
2023-01-30T15:49:38.145Z,3.86
2023-01-30T15:51:14.075Z,3.85
2023-01-30T15:52:48.390Z,3.83
2023-01-30T15:54:23.648Z,3.83
2023-01-30T15:55:55.671Z,3.83
2023-01-30T15:57:29.694Z,3.81
2023-01-30T15:59:02.333Z,3.82
2023-01-30T16:00:36.453Z,3.84
2023-01-30T16:02:13.706Z,3.85
2023-01-30T16:03:45.811Z,3.83
2023-01-30T16:05:19.248Z,3.82
2023-01-30T16:06:51.276Z,3.81
2023-01-30T16:08:25.011Z,3.82
2023-01-30T16:10:12.723Z,3.82
2023-01-30T16:11:44.965Z,3.84
2023-01-30T16:13:18.378Z,3.85
2023-01-30T16:14:52.211Z,3.84
2023-01-30T16:16:24.288Z,3.86
2023-01-30T16:18:14.803Z,3.88
2023-01-30T16:19:46.892Z,3.90
2023-01-30T16:21:20.129Z,3.93
2023-01-30T16:22:53.176Z,3.94
2023-01-30T16:24:28.129Z,3.94
2023-01-30T16:26:00.584Z,3.97
2023-01-30T16:27:34.046Z,3.97
2023-01-30T16:29:08.623Z,3.99
2023-01-30T16:30:42.610Z,3.99
2023-01-30T16:32:15.230Z,4.00
2023-01-30T16:33:51.237Z,4.00
2023-01-30T16:35:26.902Z,4.01
2023-01-30T16:37:03.085Z,4.03
2023-01-30T16:38:34.999Z,4.03
2023-01-30T16:40:18.775Z,4.03
2023-01-30T16:41:55.405Z,4.03
2023-01-30T16:43:28.183Z,4.03
2023-01-30T16:45:21.413Z,4.01
2023-01-30T16:46:56.925Z,3.99
2023-01-30T16:48:33.339Z,3.98
2023-01-30T16:50:16.472Z,3.97
2023-01-30T16:51:49.409Z,3.96
2023-01-30T16:53:24.418Z,3.95
2023-01-30T16:54:57.873Z,3.94
2023-01-30T16:56:30.923Z,3.90
2023-01-30T16:58:03.796Z,3.92
2023-01-30T16:59:36.061Z,3.94
2023-01-30T17:01:08.748Z,3.93
2023-01-30T17:02:41.903Z,3.91
2023-01-30T17:04:21.437Z,3.89
2023-01-30T17:05:53.435Z,3.90
2023-01-30T17:07:33.036Z,3.89
2023-01-30T17:09:06.743Z,3.87
2023-01-30T17:10:41.707Z,3.85
2023-01-30T17:12:25.536Z,3.83
2023-01-30T17:14:20.875Z,3.82
2023-01-30T17:15:55.467Z,3.79
2023-01-30T17:17:27.740Z,3.78
2023-01-30T17:19:00.970Z,3.80
2023-01-30T17:20:36.724Z,3.88
2023-01-30T17:22:16.097Z,3.93
2023-01-30T17:23:50.876Z,3.96
2023-01-30T17:25:41.679Z,3.99
2023-01-30T17:27:13.968Z,4.02
2023-01-30T17:28:45.996Z,4.05
2023-01-30T17:30:19.109Z,4.09
2023-01-30T17:31:52.057Z,4.11
2023-01-30T17:33:25.870Z,4.15
2023-01-30T17:34:59.435Z,4.16
2023-01-30T17:36:32.120Z,4.20
2023-01-30T17:38:05.986Z,4.22
2023-01-30T17:39:38.186Z,4.24
2023-01-30T17:41:18.013Z,4.23
2023-01-30T17:42:50.124Z,4.24
2023-01-30T17:44:22.491Z,4.23
2023-01-30T17:45:56.732Z,4.20
2023-01-30T17:47:30.517Z,4.17
2023-01-30T17:49:02.933Z,4.15
2023-01-30T17:50:36.592Z,4.10
2023-01-30T17:52:08.679Z,4.07
2023-01-30T17:53:41.819Z,4.04
2023-01-30T17:55:14.176Z,4.01
2023-01-30T17:56:48.258Z,3.97
2023-01-30T17:58:20.519Z,3.94
2023-01-30T17:59:52.492Z,3.88
2023-01-30T18:01:24.471Z,3.82
2023-01-30T18:02:56.513Z,3.80
2023-01-30T18:04:28.474Z,3.79
2023-01-30T18:06:00.634Z,3.79
2023-01-30T18:07:32.625Z,3.77
2023-01-30T18:09:05.138Z,3.78
2023-01-30T18:10:37.339Z,3.75
2023-01-30T18:12:09.270Z,3.72
2023-01-30T18:13:42.760Z,3.70
2023-01-30T18:15:15.660Z,3.69
2023-01-30T18:16:48.018Z,3.62
2023-01-30T18:18:20.157Z,3.58
2023-01-30T18:19:54.362Z,3.51
2023-01-30T18:21:26.511Z,3.45
2023-01-30T18:22:58.460Z,3.39
2023-01-30T18:24:30.827Z,3.32
2023-01-30T18:26:03.092Z,3.31
2023-01-30T18:27:35.583Z,3.28
2023-01-30T18:29:09.712Z,3.25
2023-01-30T18:30:41.874Z,3.24
2023-01-30T18:32:13.834Z,3.27
2023-01-30T18:33:45.876Z,3.28
2023-01-30T18:35:17.835Z,3.30
2023-01-30T18:36:49.804Z,3.33
2023-01-30T18:38:21.752Z,3.38
2023-01-30T18:39:53.907Z,3.42
2023-01-30T18:41:26.070Z,3.46
2023-01-30T18:42:58.214Z,3.50
2023-01-30T18:44:30.480Z,3.52
2023-01-30T18:46:04.069Z,3.57
2023-01-30T18:47:36.140Z,3.61
2023-01-30T18:49:08.470Z,3.64
2023-01-30T18:50:40.627Z,3.69
2023-01-30T18:52:12.646Z,3.72
2023-01-30T18:53:45.490Z,3.70
2023-01-30T18:55:17.707Z,3.72
2023-01-30T18:56:49.679Z,3.71
2023-01-30T18:58:21.727Z,3.71
2023-01-30T18:59:53.677Z,3.67
2023-01-30T19:01:27.065Z,3.63
2023-01-30T19:02:59.294Z,3.58
2023-01-30T19:04:31.259Z,3.55
2023-01-30T19:06:03.592Z,3.53
2023-01-30T19:07:36.182Z,3.52
2023-01-30T19:09:11.700Z,3.53
2023-01-30T19:10:43.778Z,3.58
2023-01-30T19:12:34.224Z,3.62
2023-01-30T19:14:07.135Z,3.65
2023-01-30T19:15:39.178Z,3.67
2023-01-30T19:17:11.315Z,3.70
2023-01-30T19:18:44.191Z,3.75
2023-01-30T19:20:16.656Z,3.77
2023-01-30T19:21:49.848Z,3.80
2023-01-30T19:23:25.940Z,3.83
2023-01-30T19:24:57.884Z,3.85
2023-01-30T19:26:30.597Z,3.87
2023-01-30T19:28:02.719Z,3.89
2023-01-30T19:29:34.829Z,3.90
2023-01-30T19:31:07.528Z,3.89
2023-01-30T19:32:39.600Z,3.90
2023-01-30T19:34:11.754Z,3.89
2023-01-30T19:35:44.257Z,3.89
2023-01-30T19:37:16.195Z,3.91
2023-01-30T19:38:48.857Z,3.91
2023-01-30T19:40:21.240Z,3.92
2023-01-30T19:41:53.535Z,3.94
2023-01-30T19:43:25.590Z,3.95
2023-01-30T19:44:57.573Z,3.97
2023-01-30T19:46:30.077Z,3.99
2023-01-30T19:48:02.133Z,4.01
2023-01-30T19:49:35.872Z,4.04
2023-01-30T19:51:14.985Z,4.05
2023-01-30T19:52:47.324Z,4.06
2023-01-30T19:54:19.539Z,4.07
2023-01-30T19:55:51.893Z,4.16
2023-01-30T19:57:23.908Z,4.14
2023-01-30T19:58:57.330Z,4.15
2023-01-30T20:00:29.379Z,4.13
2023-01-30T20:02:01.362Z,4.11
2023-01-30T20:03:33.526Z,4.09
2023-01-30T20:05:05.867Z,4.11
2023-01-30T20:06:38.376Z,4.06
2023-01-30T20:08:21.755Z,4.05
2023-01-30T20:10:01.666Z,4.04
2023-01-30T20:11:34.874Z,4.01
2023-01-30T20:13:07.038Z,3.98
2023-01-30T20:14:39.064Z,3.99
2023-01-30T20:16:12.540Z,4.00
2023-01-30T20:17:44.557Z,4.00
2023-01-30T20:19:16.972Z,4.00
2023-01-30T20:20:49.336Z,4.02
2023-01-30T20:22:21.358Z,4.09
2023-01-30T20:23:53.397Z,4.08
2023-01-30T20:25:25.434Z,4.09
2023-01-30T20:26:57.587Z,4.10
2023-01-30T20:28:29.644Z,4.10
2023-01-30T20:30:01.673Z,4.11
2023-01-30T20:31:35.030Z,4.13
2023-01-30T20:33:07.145Z,4.10
2023-01-30T20:34:39.153Z,4.10
2023-01-30T20:36:13.323Z,4.08
2023-01-30T20:37:45.355Z,4.08
2023-01-30T20:39:17.362Z,4.10
2023-01-30T20:40:49.448Z,4.10
2023-01-30T20:42:22.006Z,4.13
2023-01-30T20:43:57.346Z,4.13
2023-01-30T20:45:29.293Z,4.15
2023-01-30T20:47:01.678Z,4.16
2023-01-30T20:48:34.660Z,4.18
2023-01-30T20:50:06.775Z,4.19
2023-01-30T20:51:38.944Z,4.21
2023-01-30T20:53:12.012Z,4.23
2023-01-30T20:54:43.986Z,4.24